Aviation Digital Data Service (ADDS)

Output produced by METARs form (0344 UTC 23 November 2017)
found at http://www.aviationweather.gov/adds/metars/
 
KXNA 222325Z 2300/2324 35004KT P6SM FEW250 
     FM231500 22007KT P6SM SKC